Time;durP1;ratioP1;P1;durP2;ratioP2;P2;SDS_P1;SDS_P2;PMS_P1;PMS_P2;Temp;Humidity;BMP_temperature;BMP_pressure;BME280_temperature;BME280_humidity;BME280_pressure;Samples;Min_cycle;Max_cycle;Signal;HPM_P1;HPM_P2
2022/05/22 00:00:01;;;;;;;3.05;0.85;;;21.60;49.30;20.80;101517.00;;;;5023232;28;20037;-72
2022/05/22 00:02:49;;;;;;;2.53;0.95;;;21.50;49.30;20.70;101520.00;;;;5031303;28;20045;-72
2022/05/22 00:05:35;;;;;;;2.95;0.82;;;21.50;49.30;20.70;101509.00;;;;5044115;28;20401;-72
2022/05/22 00:08:21;;;;;;;2.55;1.00;;;21.50;49.30;20.70;101506.00;;;;5036548;28;20037;-72
2022/05/22 00:11:07;;;;;;;2.30;0.85;;;21.50;49.30;20.70;101504.00;;;;5027811;28;20405;-72
2022/05/22 00:13:53;;;;;;;2.88;0.95;;;21.50;49.40;20.70;101491.00;;;;5045332;28;20049;-72
2022/05/22 00:16:46;;;;;;;1.52;0.60;;;21.50;49.40;20.70;101500.00;;;;5041088;28;20490;-72
2022/05/22 00:19:32;;;;;;;1.50;0.75;;;21.50;49.50;20.70;101495.00;;;;5046631;28;20142;-72
2022/05/22 00:22:18;;;;;;;2.80;1.00;;;21.50;49.50;20.70;101494.00;;;;5042069;28;20037;-72
2022/05/22 00:25:05;;;;;;;2.45;0.70;;;21.50;49.50;20.70;101498.00;;;;5060940;28;20036;-72
2022/05/22 00:27:52;;;;;;;1.65;0.70;;;21.50;49.50;20.70;101503.00;;;;5043055;28;20033;-72
2022/05/22 00:30:38;;;;;;;2.22;1.02;;;21.50;49.60;20.70;101492.00;;;;5041145;28;20036;-72
2022/05/22 00:33:27;;;;;;;1.15;0.57;;;21.50;49.60;20.70;101494.00;;;;5054653;28;20053;-72
2022/05/22 00:36:13;;;;;;;2.20;0.70;;;21.50;49.60;20.60;101489.00;;;;5043068;28;20049;-72
2022/05/22 00:39:01;;;;;;;2.33;0.70;;;21.50;49.60;20.70;101497.00;;;;5049396;28;20304;-72
2022/05/22 00:41:53;;;;;;;1.85;0.68;;;21.50;49.60;20.70;101499.00;;;;5053455;28;20053;-72
2022/05/22 00:44:39;;;;;;;1.42;0.60;;;21.50;49.60;20.60;101506.00;;;;5058111;28;20509;-71
2022/05/22 00:47:25;;;;;;;1.45;0.75;;;21.50;49.60;20.60;101511.00;;;;5029564;28;20041;-72
2022/05/22 00:50:11;;;;;;;1.35;0.60;;;21.50;49.60;20.60;101513.00;;;;5060085;28;20522;-71
2022/05/22 00:52:58;;;;;;;2.17;0.63;;;21.50;49.60;20.60;101503.00;;;;5043951;28;20041;-71
2022/05/22 00:55:44;;;;;;;1.50;0.73;;;21.50;49.60;20.60;101489.00;;;;5029657;28;20040;-71
2022/05/22 00:58:31;;;;;;;2.63;0.90;;;21.40;49.60;20.60;101494.00;;;;5031308;28;20064;-71
2022/05/22 01:01:17;;;;;;;1.10;0.68;;;21.40;49.60;20.60;101492.00;;;;5039206;28;20040;-71
2022/05/22 01:04:05;;;;;;;2.70;0.88;;;21.40;49.60;20.60;101494.00;;;;5048591;28;20036;-71
2022/05/22 01:06:51;;;;;;;2.35;0.90;;;21.40;49.60;20.60;101486.00;;;;5027392;28;20061;-71
2022/05/22 01:09:38;;;;;;;3.67;0.90;;;21.40;49.60;20.60;101481.00;;;;5045724;28;20563;-71
2022/05/22 01:12:24;;;;;;;1.88;0.88;;;21.40;49.60;20.60;101473.00;;;;5044921;28;20116;-71
2022/05/22 01:15:11;;;;;;;1.33;1.00;;;21.40;49.70;20.60;101476.00;;;;5056715;28;20378;-72
2022/05/22 01:17:57;;;;;;;2.55;0.88;;;21.40;49.70;20.60;101473.00;;;;5038332;28;20055;-72
2022/05/22 01:20:51;;;;;;;2.40;0.90;;;21.40;49.70;20.60;101471.00;;;;5040921;28;20052;-71
2022/05/22 01:23:37;;;;;;;2.75;0.80;;;21.40;49.70;20.60;101469.00;;;;5049661;28;20107;-71
2022/05/22 01:26:25;;;;;;;1.60;0.77;;;21.40;49.70;20.60;101474.00;;;;5047946;28;20426;-71
2022/05/22 01:29:11;;;;;;;;;;;21.40;49.70;20.60;101468.00;;;;5046295;28;20116;-71
2022/05/22 01:31:57;;;;;;;0.65;0.47;;;21.40;49.70;20.50;101463.00;;;;5042486;28;20246;-72
2022/05/22 01:34:43;;;;;;;1.20;0.68;;;21.40;49.60;20.50;101461.00;;;;5042805;28;20084;-72
2022/05/22 01:37:29;;;;;;;2.08;0.60;;;21.40;49.50;20.50;101458.00;;;;5046218;28;20032;-72
2022/05/22 01:40:16;;;;;;;0.90;0.55;;;21.30;49.50;20.50;101461.00;;;;5043884;28;20037;-71
2022/05/22 01:43:02;;;;;;;1.83;0.70;;;21.40;49.60;20.50;101458.00;;;;5058803;28;20040;-72
2022/05/22 01:45:49;;;;;;;1.65;0.70;;;21.40;49.60;20.50;101464.00;;;;5036894;28;20483;-72
2022/05/22 01:48:35;;;;;;;1.05;0.60;;;21.50;49.70;20.50;101471.00;;;;5035345;28;20040;-72
2022/05/22 01:51:21;;;;;;;0.60;0.60;;;21.30;49.60;20.50;101469.00;;;;5049499;28;20091;-72
2022/05/22 01:54:07;;;;;;;0.88;0.45;;;21.30;49.60;20.50;101471.00;;;;5038205;28;20383;-72
2022/05/22 01:56:53;;;;;;;1.23;0.50;;;21.30;49.60;20.50;101484.00;;;;5053061;28;20481;-71
2022/05/22 01:59:39;;;;;;;0.98;0.57;;;21.30;49.60;20.50;101473.00;;;;5053462;28;20045;-72
2022/05/22 02:02:25;;;;;;;1.77;0.70;;;21.30;49.50;20.50;101477.00;;;;5049473;28;20041;-71
2022/05/22 02:05:11;;;;;;;1.95;0.57;;;21.30;49.50;20.50;101481.00;;;;5058669;28;20037;-72
2022/05/22 02:11:03;;;;;;;1.20;0.55;;;21.30;49.50;20.40;101478.00;;;;5053903;28;20409;-72
2022/05/22 02:13:50;;;;;;;0.93;0.50;;;21.30;49.50;20.50;101489.00;;;;5055938;28;20047;-72
2022/05/22 02:16:36;;;;;;;3.00;0.65;;;21.30;49.60;20.50;101483.00;;;;5042260;28;20498;-72
2022/05/22 02:19:22;;;;;;;1.35;0.60;;;21.30;49.50;20.40;101470.00;;;;5046785;28;20037;-72
2022/05/22 02:22:08;;;;;;;0.95;0.63;;;21.30;49.50;20.40;101470.00;;;;5061428;28;20037;-71
2022/05/22 02:24:54;;;;;;;1.90;0.60;;;21.30;50.20;20.40;101472.00;;;;5047949;28;20087;-73
2022/05/22 02:27:41;;;;;;;2.55;0.65;;;21.30;49.40;20.40;101474.00;;;;5061441;28;20387;-72
2022/05/22 02:30:30;;;;;;;0.95;0.60;;;21.30;49.50;20.40;101477.00;;;;5041032;28;20049;-72
2022/05/22 02:33:16;;;;;;;1.25;0.55;;;21.30;49.50;20.40;101477.00;;;;5041568;28;20434;-72
2022/05/22 02:36:06;;;;;;;0.73;0.55;;;21.30;49.40;20.40;101478.00;;;;5074864;28;20048;-72
2022/05/22 02:38:52;;;;;;;0.68;0.52;;;21.20;49.40;20.40;101480.00;;;;5040300;28;20033;-72
2022/05/22 02:41:38;;;;;;;1.05;0.50;;;21.20;49.40;20.40;101473.00;;;;5041714;28;20401;-72
2022/05/22 02:44:24;;;;;;;1.95;0.65;;;21.20;49.30;20.40;101468.00;;;;5066204;28;20094;-72
2022/05/22 02:47:10;;;;;;;0.90;0.40;;;21.30;49.40;20.40;101464.00;;;;5061743;28;20351;-72
2022/05/22 02:49:56;;;;;;;0.75;0.50;;;21.20;49.30;20.40;101465.00;;;;5039971;28;20025;-72
2022/05/22 02:52:42;;;;;;;0.93;0.50;;;21.30;49.40;20.40;101462.00;;;;5040482;28;20398;-72
2022/05/22 02:55:28;;;;;;;0.85;0.43;;;21.20;49.30;20.40;101466.00;;;;5051070;28;20557;-72
2022/05/22 02:58:14;;;;;;;0.70;0.52;;;21.30;49.30;20.40;101467.00;;;;5053692;28;20480;-72
2022/05/22 03:01:00;;;;;;;0.82;0.70;;;21.20;49.20;20.40;101467.00;;;;5046155;28;20044;-72
2022/05/22 03:03:46;;;;;;;0.95;0.50;;;21.20;49.20;20.40;101465.00;;;;5036704;28;20098;-72
2022/05/22 03:06:38;;;;;;;1.27;0.60;;;21.20;49.30;20.40;101453.00;;;;5049423;28;20239;-72
2022/05/22 03:09:24;;;;;;;1.17;0.40;;;21.20;49.30;20.30;101437.00;;;;5043160;28;20047;-72
2022/05/22 03:12:16;;;;;;;0.85;0.50;;;21.20;49.20;20.30;101440.00;;;;5041209;28;20041;-71
2022/05/22 03:15:05;;;;;;;0.60;0.40;;;21.10;49.20;20.30;101428.00;;;;5029445;28;20087;-72
2022/05/22 03:17:52;;;;;;;0.73;0.35;;;21.10;49.10;20.30;101428.00;;;;5045744;28;20111;-71
2022/05/22 03:20:38;;;;;;;1.27;0.57;;;21.10;49.10;20.30;101429.00;;;;5041647;28;20029;-72
2022/05/22 03:23:24;;;;;;;1.45;0.60;;;21.10;49.10;20.30;101433.00;;;;5041259;28;20506;-72
2022/05/22 03:26:10;;;;;;;0.82;0.40;;;21.20;49.20;20.30;101426.00;;;;5047246;28;20041;-72
2022/05/22 03:28:56;;;;;;;1.10;0.40;;;21.10;49.10;20.30;101439.00;;;;5031870;28;20389;-72
2022/05/22 03:31:42;;;;;;;2.20;0.65;;;21.00;49.10;20.30;101433.00;;;;5039430;28;20029;-72
2022/05/22 03:34:28;;;;;;;1.02;0.57;;;21.10;49.20;20.30;101435.00;;;;5055982;28;20498;-72
2022/05/22 03:37:14;;;;;;;0.50;0.38;;;21.10;49.20;20.30;101441.00;;;;5054982;28;20040;-72
2022/05/22 03:40:01;;;;;;;1.10;0.43;;;21.10;49.30;20.30;101434.00;;;;5051901;28;20144;-72
2022/05/22 03:42:47;;;;;;;1.13;0.52;;;21.10;49.10;20.20;101443.00;;;;5060573;28;20109;-72
2022/05/22 03:45:33;;;;;;;1.00;0.80;;;21.10;49.10;20.20;101430.00;;;;5045751;28;20383;-72
2022/05/22 03:48:19;;;;;;;1.10;0.47;;;21.00;49.00;20.20;101432.00;;;;5054932;28;20033;-72
2022/05/22 03:51:05;;;;;;;2.03;0.50;;;21.10;49.10;20.20;101437.00;;;;5059099;28;20088;-72
2022/05/22 03:53:51;;;;;;;2.72;0.50;;;21.00;49.00;20.20;101430.00;;;;5043346;28;20041;-72
2022/05/22 03:56:40;;;;;;;0.93;0.60;;;21.00;49.00;20.20;101432.00;;;;5054469;28;20040;-71
2022/05/22 03:59:27;;;;;;;0.40;0.40;;;21.00;49.10;20.20;101429.00;;;;5051642;28;20045;-71
2022/05/22 04:02:13;;;;;;;1.15;0.40;;;21.00;49.00;20.20;101426.00;;;;5046162;28;20078;-71
2022/05/22 04:04:59;;;;;;;1.95;0.60;;;21.00;48.90;20.20;101436.00;;;;5045671;28;20037;-72
2022/05/22 04:07:46;;;;;;;0.70;0.47;;;21.00;49.00;20.20;101428.00;;;;5054640;28;20482;-71
2022/05/22 04:10:34;;;;;;;1.50;0.40;;;21.00;48.90;20.20;101431.00;;;;5045837;28;20102;-71
2022/05/22 04:13:20;;;;;;;1.38;0.57;;;21.00;48.90;20.20;101423.00;;;;5045874;28;20491;-71
2022/05/22 04:16:06;;;;;;;1.20;0.70;;;21.00;48.90;20.20;101424.00;;;;5051426;28;20049;-71
2022/05/22 04:18:52;;;;;;;0.60;0.50;;;21.00;48.90;20.20;101423.00;;;;5043940;28;20041;-71
2022/05/22 04:21:38;;;;;;;1.30;0.65;;;21.00;48.90;20.20;101424.00;;;;5058344;28;20462;-71
2022/05/22 04:27:29;;;;;;;0.65;0.38;;;21.00;48.90;20.20;101433.00;;;;5052789;28;20047;-71
2022/05/22 04:30:19;;;;;;;0.55;0.40;;;21.00;48.80;20.20;101434.00;;;;5047009;28;20104;-72
2022/05/22 04:33:06;;;;;;;2.70;0.57;;;21.00;48.90;20.20;101437.00;;;;5053481;28;20047;-72
2022/05/22 04:35:52;;;;;;;0.77;0.47;;;21.00;48.90;20.10;101431.00;;;;5043134;28;20045;-71
2022/05/22 04:38:38;;;;;;;1.15;0.50;;;20.90;48.80;20.10;101440.00;;;;5036718;28;20036;-71
2022/05/22 04:41:24;;;;;;;1.95;0.68;;;20.90;48.80;20.10;101436.00;;;;5043457;28;20049;-71
2022/05/22 04:44:10;;;;;;;1.20;0.45;;;21.00;48.90;20.10;101438.00;;;;5046314;28;20057;-71
2022/05/22 04:47:00;;;;;;;0.95;0.70;;;20.90;48.80;20.10;101441.00;;;;5042653;28;20052;-71
2022/05/22 04:49:48;;;;;;;0.52;0.40;;;21.00;48.90;20.10;101435.00;;;;5039949;28;20509;-72
2022/05/22 04:52:35;;;;;;;2.78;1.02;;;20.90;48.80;20.10;101437.00;;;;5039020;28;20033;-71
2022/05/22 04:55:21;;;;;;;0.55;0.55;;;20.90;48.80;20.10;101435.00;;;;5029614;28;20041;-72
2022/05/22 04:58:07;;;;;;;1.00;0.50;;;21.00;48.80;20.10;101424.00;;;;5046077;28;20041;-71
2022/05/22 05:00:53;;;;;;;1.90;0.73;;;20.90;48.80;20.10;101418.00;;;;5045011;28;20076;-71
2022/05/22 05:03:39;;;;;;;0.98;0.50;;;21.00;48.80;20.10;101421.00;;;;5045816;28;20122;-71
2022/05/22 05:06:29;;;;;;;0.80;0.45;;;21.00;48.80;20.10;101415.00;;;;5044834;28;20041;-72
2022/05/22 05:09:16;;;;;;;1.10;0.75;;;20.90;48.70;20.10;101417.00;;;;5029903;28;20029;-71
2022/05/22 05:12:04;;;;;;;1.15;0.70;;;21.00;48.80;20.10;101419.00;;;;5040013;28;20771;-71
2022/05/22 05:14:50;;;;;;;0.52;0.43;;;21.00;48.70;20.10;101425.00;;;;5060515;28;20036;-71
2022/05/22 05:17:36;;;;;;;1.63;0.75;;;21.00;48.70;20.20;101428.00;;;;5056200;28;20072;-71
2022/05/22 05:20:23;;;;;;;0.60;0.45;;;21.00;48.80;20.20;101424.00;;;;5042674;28;20052;-71
2022/05/22 05:23:09;;;;;;;1.17;0.70;;;21.00;48.70;20.20;101422.00;;;;5043227;28;20068;-71
2022/05/22 05:25:55;;;;;;;0.57;0.50;;;21.00;48.80;20.20;101432.00;;;;5054607;28;20037;-72
2022/05/22 05:28:41;;;;;;;0.95;0.55;;;21.00;48.80;20.20;101426.00;;;;5058018;28;20124;-72
2022/05/22 05:31:27;;;;;;;1.23;0.80;;;21.00;48.90;20.20;101422.00;;;;5038489;28;20048;-71
2022/05/22 05:34:13;;;;;;;1.85;0.60;;;21.00;48.80;20.20;101422.00;;;;5046223;28;20045;-72
2022/05/22 05:36:59;;;;;;;1.35;0.80;;;21.00;48.90;20.20;101420.00;;;;5040986;28;20051;-72
2022/05/22 05:39:45;;;;;;;1.45;0.85;;;21.10;48.90;20.20;101422.00;;;;5050620;28;20449;-72
2022/05/22 05:42:32;;;;;;;1.33;0.90;;;21.10;48.90;20.20;101425.00;;;;5044943;28;20041;-72
2022/05/22 05:45:18;;;;;;;1.35;1.00;;;21.00;48.90;20.20;101422.00;;;;5043032;28;20468;-72
2022/05/22 05:48:04;;;;;;;2.17;1.00;;;21.10;48.90;20.20;101417.00;;;;5044065;28;20040;-72
2022/05/22 05:50:51;;;;;;;1.77;1.00;;;21.10;48.90;20.20;101416.00;;;;5045744;28;20037;-72
2022/05/22 05:53:37;;;;;;;1.05;0.93;;;21.10;49.00;20.20;101412.00;;;;5058086;28;20036;-72
2022/05/22 05:56:23;;;;;;;1.90;1.00;;;21.10;49.00;20.20;101415.00;;;;5041334;28;20044;-72
2022/05/22 05:59:09;;;;;;;2.65;0.80;;;21.10;49.00;20.20;101421.00;;;;5040773;28;20446;-72
2022/05/22 06:01:55;;;;;;;1.25;0.85;;;21.10;49.10;20.20;101410.00;;;;5043561;28;20172;-72
2022/05/22 06:04:41;;;;;;;1.45;0.93;;;21.20;49.10;20.20;101402.00;;;;5045126;28;20040;-72
2022/05/22 06:07:27;;;;;;;1.10;0.93;;;21.10;49.10;20.20;101412.00;;;;5053282;28;20045;-72
2022/05/22 06:10:13;;;;;;;2.53;1.00;;;21.10;49.00;20.30;101405.00;;;;5042421;28;20037;-72
2022/05/22 06:12:59;;;;;;;2.65;1.23;;;21.10;49.00;20.30;101392.00;;;;5055205;28;20079;-72
2022/05/22 06:15:45;;;;;;;1.90;1.02;;;21.20;49.20;20.30;101399.00;;;;5046607;28;20127;-72
2022/05/22 06:18:31;;;;;;;2.10;1.10;;;21.10;49.10;20.30;101398.00;;;;5044660;28;20426;-72
2022/05/22 06:21:19;;;;;;;1.23;1.13;;;21.20;49.20;20.30;101402.00;;;;5056466;28;20505;-72
2022/05/22 06:24:06;;;;;;;3.85;0.98;;;21.20;49.20;20.30;101407.00;;;;5044691;28;20131;-72
2022/05/22 06:26:52;;;;;;;1.52;1.13;;;21.20;49.30;20.30;101410.00;;;;5040751;28;20042;-72
2022/05/22 06:29:39;;;;;;;1.73;0.90;;;21.10;49.10;20.30;101405.00;;;;5042726;28;20390;-71
2022/05/22 06:32:25;;;;;;;3.90;1.08;;;21.20;49.20;20.30;101402.00;;;;5041312;28;20073;-72
2022/05/22 06:35:12;;;;;;;1.48;0.90;;;21.30;49.30;20.30;101410.00;;;;5048469;28;20041;-72
2022/05/22 06:37:58;;;;;;;2.42;1.00;;;21.20;49.20;20.30;101406.00;;;;5054342;28;20041;-71
2022/05/22 06:40:44;;;;;;;4.40;1.00;;;21.20;49.20;20.30;101407.00;;;;5043952;28;20033;-71
2022/05/22 06:43:30;;;;;;;2.30;1.00;;;21.20;49.20;20.30;101405.00;;;;5042915;28;20045;-72
2022/05/22 06:46:16;;;;;;;10.25;2.10;;;21.30;49.30;20.30;101411.00;;;;5041279;28;20044;-72
2022/05/22 06:49:02;;;;;;;6.95;2.40;;;21.30;49.00;20.30;101406.00;;;;5042256;28;20045;-71
2022/05/22 06:51:49;;;;;;;5.97;2.72;;;21.30;48.70;20.20;101407.00;;;;5039444;28;20043;-72
2022/05/22 06:54:35;;;;;;;6.28;2.58;;;21.30;48.60;20.20;101412.00;;;;5037640;28;20037;-73
2022/05/22 06:57:22;;;;;;;7.22;2.28;;;21.30;48.50;20.10;101416.00;;;;5054848;28;20100;-73
2022/05/22 07:00:14;;;;;;;4.40;2.50;;;21.30;48.30;20.10;101421.00;;;;5042281;28;20051;-73
2022/05/22 07:03:00;;;;;;;8.85;3.00;;;21.30;48.30;20.00;101415.00;;;;5042046;28;20041;-73
2022/05/22 07:05:46;;;;;;;5.22;2.20;;;21.30;48.30;20.00;101417.00;;;;5041330;28;20516;-73
2022/05/22 07:08:32;;;;;;;7.75;2.33;;;21.20;48.60;20.00;101419.00;;;;5038150;28;21426;-72
2022/05/22 07:14:23;;;;;;;7.75;1.88;;;21.10;48.30;19.90;101422.00;;;;5051059;28;20386;-73
2022/05/22 07:17:11;;;;;;;5.82;1.95;;;21.10;48.00;19.90;101420.00;;;;5048028;28;20041;-73
2022/05/22 07:19:57;;;;;;;7.35;2.30;;;21.10;48.10;19.90;101424.00;;;;5047479;28;20044;-73
2022/05/22 07:22:43;;;;;;;7.80;2.10;;;21.10;48.10;19.80;101420.00;;;;5015650;28;20099;-73
2022/05/22 07:25:29;;;;;;;6.75;1.88;;;21.00;48.10;19.80;101411.00;;;;5049030;28;20371;-73
2022/05/22 07:28:15;;;;;;;8.13;2.05;;;21.00;47.80;19.80;101417.00;;;;5044750;28;20041;-72
2022/05/22 07:31:01;;;;;;;4.97;1.75;;;21.00;47.80;19.80;101415.00;;;;5051140;28;20120;-72
2022/05/22 07:33:47;;;;;;;5.75;1.88;;;20.90;48.20;19.80;101416.00;;;;5051146;28;20037;-73
2022/05/22 07:36:33;;;;;;;4.47;1.25;;;20.90;48.40;19.80;101422.00;;;;5042330;28;20036;-72
2022/05/22 07:39:20;;;;;;;8.52;1.92;;;20.90;48.50;19.80;101412.00;;;;5048698;28;20068;-73
2022/05/22 07:42:06;;;;;;;5.70;1.33;;;20.90;48.20;19.80;101411.00;;;;5046920;28;20171;-73
2022/05/22 07:44:52;;;;;;;5.80;1.10;;;20.90;48.40;19.80;101409.00;;;;5036284;28;20037;-72
2022/05/22 07:47:41;;;;;;;5.30;1.65;;;20.90;48.70;19.90;101405.00;;;;5040602;28;20184;-72
2022/05/22 07:50:28;;;;;;;5.05;1.58;;;21.00;48.60;19.90;101398.00;;;;5041809;28;20037;-72
2022/05/22 07:53:14;;;;;;;4.53;1.42;;;20.90;48.20;19.90;101398.00;;;;5043999;28;20041;-72
2022/05/22 07:56:01;;;;;;;14.50;2.92;;;21.00;48.40;19.90;101401.00;;;;5041718;28;20048;-73
2022/05/22 07:58:47;;;;;;;8.93;1.75;;;21.00;48.50;19.90;101401.00;;;;5043916;28;20041;-73
2022/05/22 08:01:34;;;;;;;9.93;1.70;;;21.00;48.60;20.00;101402.00;;;;5038654;28;20048;-73
2022/05/22 08:04:20;;;;;;;4.32;1.15;;;21.00;48.50;20.00;101395.00;;;;5035726;28;20448;-73
2022/05/22 08:07:06;;;;;;;6.30;1.50;;;21.00;48.20;20.00;101399.00;;;;5042743;28;20048;-73
2022/05/22 08:09:52;;;;;;;6.38;1.48;;;21.00;48.40;20.00;101389.00;;;;5052079;28;20037;-72
2022/05/22 08:13:03;;;;;;;8.40;1.60;;;21.10;48.30;20.00;101387.00;;;;5036835;28;20091;-72
2022/05/22 08:15:49;;;;;;;4.72;1.10;;;21.10;48.50;20.00;101389.00;;;;5033500;28;20040;-73
2022/05/22 08:18:36;;;;;;;4.18;1.30;;;21.10;48.40;20.00;101376.00;;;;5035727;28;20040;-74
2022/05/22 08:21:23;;;;;;;2.97;1.17;;;21.10;48.30;20.00;101379.00;;;;5036828;28;20519;-73
2022/05/22 08:24:09;;;;;;;7.95;1.40;;;21.20;49.10;20.10;101378.00;;;;5041538;28;20044;-74
2022/05/22 08:26:55;;;;;;;3.40;1.20;;;21.20;48.30;20.10;101382.00;;;;5038232;28;20033;-73
2022/05/22 08:29:41;;;;;;;5.15;1.60;;;21.20;48.40;20.10;101374.00;;;;5013031;28;20041;-73
2022/05/22 08:32:30;;;;;;;6.75;1.58;;;21.20;48.30;20.10;101372.00;;;;5045441;28;20041;-83
2022/05/22 08:35:21;;;;;;;5.65;1.73;;;21.20;48.00;20.10;101364.00;;;;5048104;28;20371;-84
2022/05/22 08:38:07;;;;;;;4.25;1.23;;;21.20;48.30;20.10;101360.00;;;;5014600;28;20045;-82
2022/05/22 08:41:20;;;;;;;3.42;1.20;;;21.20;48.30;20.10;101362.00;;;;5015124;28;20052;-75
2022/05/22 08:44:27;;;;;;;5.72;1.30;;;21.30;48.20;20.10;101358.00;;;;5047221;28;20045;-74
2022/05/22 08:47:22;;;;;;;7.70;1.73;;;21.30;48.20;20.10;101358.00;;;;5041488;28;20040;-74
2022/05/22 08:50:13;;;;;;;7.05;1.48;;;21.30;48.40;20.20;101356.00;;;;5059567;28;20029;-73
2022/05/22 08:53:18;;;;;;;9.20;1.45;;;21.30;48.30;20.20;101360.00;;;;5036661;28;20038;-73
2022/05/22 08:59:29;;;;;;;13.95;1.83;;;21.30;48.40;20.20;101356.00;;;;5033400;28;20080;-73
2022/05/22 09:02:30;;;;;;;6.13;1.20;;;21.40;48.00;20.20;101355.00;;;;5043098;28;20172;-73
2022/05/22 09:05:19;;;;;;;4.35;1.38;;;21.40;48.10;20.20;101356.00;;;;5043594;28;20041;-73
2022/05/22 09:08:14;;;;;;;11.43;2.40;;;21.40;48.00;20.20;101343.00;;;;5054212;28;20048;-73
2022/05/22 09:11:48;;;;;;;7.68;1.30;;;21.40;47.80;20.20;101343.00;;;;5028691;28;20110;-73
2022/05/22 09:14:49;;;;;;;7.32;1.92;;;21.30;47.80;20.30;101350.00;;;;5050445;28;20033;-72
2022/05/22 09:17:57;;;;;;;6.05;1.70;;;21.40;47.80;20.20;101357.00;;;;5043225;28;21450;-72
2022/05/22 09:21:08;;;;;;;7.57;1.67;;;21.40;47.90;20.20;101342.00;;;;5042474;28;20414;-72
2022/05/22 09:24:05;;;;;;;14.68;2.30;;;21.40;47.70;20.20;101338.00;;;;5042356;28;20095;-73
2022/05/22 09:27:10;;;;;;;9.52;1.88;;;21.50;47.70;20.20;101333.00;;;;5045337;28;20059;-72
2022/05/22 09:30:06;;;;;;;16.15;2.55;;;21.40;47.50;20.20;101326.00;;;;5044873;28;20572;-71
2022/05/22 09:33:22;;;;;;;7.32;1.67;;;21.40;47.40;20.20;101329.00;;;;5045916;28;20033;-78
2022/05/22 09:36:27;;;;;;;5.22;1.30;;;21.40;47.30;20.20;101322.00;;;;5026559;28;20051;-72
2022/05/22 09:40:02;;;;;;;11.45;1.60;;;21.40;47.10;20.20;101324.00;;;;5060812;28;20052;-71
2022/05/22 09:43:14;;;;;;;5.82;1.27;;;21.40;47.40;20.20;101323.00;;;;5057867;28;20068;-72
2022/05/22 09:46:27;;;;;;;5.13;1.33;;;21.40;47.40;20.20;101324.00;;;;5035432;28;20120;-72
2022/05/22 09:49:38;;;;;;;6.85;2.00;;;21.40;46.20;20.20;101322.00;;;;5040400;28;21322;-72
2022/05/22 09:52:50;;;;;;;3.78;1.30;;;21.40;46.50;20.20;101318.00;;;;5053610;28;20266;-71
2022/05/22 09:55:46;;;;;;;18.17;3.30;;;21.40;46.40;20.20;101311.00;;;;5054380;28;20466;-72
2022/05/22 09:58:50;;;;;;;18.25;2.13;;;21.40;46.50;20.20;101312.00;;;;5031122;28;20040;-73
2022/05/22 10:01:40;;;;;;;9.55;1.63;;;21.40;46.70;20.30;101319.00;;;;5045479;28;20393;-71
2022/05/22 10:04:59;;;;;;;7.20;1.02;;;21.40;46.90;20.30;101305.00;;;;5030589;28;20057;-71
2022/05/22 10:08:07;;;;;;;8.25;1.38;;;21.40;47.00;20.30;101298.00;;;;5054114;28;20042;-71
2022/05/22 10:11:20;;;;;;;7.68;1.52;;;21.50;46.90;20.40;101294.00;;;;5036307;28;20433;-71
2022/05/22 10:14:34;;;;;;;3.20;1.30;;;21.50;46.80;20.40;101295.00;;;;5053823;28;20028;-71
2022/05/22 10:18:01;;;;;;;5.43;0.85;;;21.50;47.00;20.40;101292.00;;;;5070672;28;20102;-71
2022/05/22 10:21:03;;;;;;;4.90;1.65;;;21.60;47.00;20.40;101291.00;;;;5070200;28;20497;-71
2022/05/22 10:24:40;;;;;;;6.55;1.48;;;21.60;46.90;20.40;101291.00;;;;5050029;28;20390;-71
2022/05/22 10:28:06;;;;;;;3.95;1.27;;;21.60;46.20;20.40;101280.00;;;;5035873;28;20116;-74
2022/05/22 10:30:59;;;;;;;4.18;1.00;;;21.60;46.60;20.40;101284.00;;;;5048198;28;20037;-71
2022/05/22 10:33:55;;;;;;;2.83;0.77;;;21.60;46.80;20.40;101281.00;;;;5062975;28;20036;-71
2022/05/22 10:36:45;;;;;;;6.53;1.25;;;21.60;46.80;20.50;101293.00;;;;5044814;28;20044;-71
2022/05/22 10:39:31;;;;;;;4.57;1.10;;;21.70;47.00;20.50;101291.00;;;;5047447;28;20051;-71
2022/05/22 10:42:47;;;;;;;3.05;1.00;;;21.70;47.00;20.50;101277.00;;;;5057109;28;20041;-71
2022/05/22 10:45:37;;;;;;;8.65;1.27;;;21.70;47.00;20.50;101278.00;;;;5053121;28;20924;-71
2022/05/22 10:48:24;;;;;;;5.00;1.30;;;21.70;47.10;20.50;101273.00;;;;5040511;28;20037;-71
2022/05/22 10:51:12;;;;;;;4.35;1.17;;;21.70;47.10;20.50;101265.00;;;;5057861;28;20029;-71
2022/05/22 10:54:00;;;;;;;2.97;0.70;;;21.70;47.10;20.50;101267.00;;;;5066007;28;20090;-71
2022/05/22 10:56:46;;;;;;;;;;;21.70;47.10;20.50;101261.00;;;;5057541;28;20041;-71
2022/05/22 10:59:32;;;;;;;1.92;0.73;;;21.70;47.30;20.50;101267.00;;;;5048006;28;19936;-71
2022/05/22 11:02:36;;;;;;;2.40;1.08;;;21.80;47.10;20.60;101259.00;;;;5048221;28;20093;-71
2022/05/22 11:05:27;;;;;;;3.83;1.02;;;21.80;47.10;20.60;101253.00;;;;5053336;28;20040;-71
2022/05/22 11:08:32;;;;;;;3.25;1.08;;;21.80;47.10;20.60;101249.00;;;;5051902;28;20097;-71
2022/05/22 11:11:28;;;;;;;4.13;0.90;;;21.80;47.20;20.60;101245.00;;;;5066140;28;20039;-71
2022/05/22 11:14:19;;;;;;;2.95;1.20;;;21.80;47.10;20.60;101233.00;;;;5031950;28;20059;-71
2022/05/22 11:17:18;;;;;;;3.20;0.75;;;21.80;47.10;20.60;101239.00;;;;5043936;28;20041;-71
2022/05/22 11:20:16;;;;;;;3.60;0.98;;;21.80;47.00;20.60;101238.00;;;;5039251;28;20044;-71
2022/05/22 11:23:41;;;;;;;4.18;1.42;;;21.80;47.00;20.60;101226.00;;;;5066041;28;20042;-71
2022/05/22 11:26:30;;;;;;;2.75;0.80;;;21.80;47.00;20.60;101227.00;;;;5053969;28;20040;-71
2022/05/22 11:29:53;;;;;;;4.93;1.02;;;21.80;47.00;20.60;101231.00;;;;5038569;28;20087;-71
2022/05/22 11:33:23;;;;;;;3.88;1.05;;;21.80;46.90;20.60;101232.00;;;;5045643;28;20178;-71
2022/05/22 11:36:35;;;;;;;3.05;0.85;;;21.80;46.80;20.60;101228.00;;;;5046909;28;20075;-71
2022/05/22 11:40:02;;;;;;;2.72;0.93;;;21.80;46.70;20.60;101222.00;;;;5073423;28;20059;-71
2022/05/22 11:42:52;;;;;;;2.53;0.90;;;21.90;46.80;20.60;101223.00;;;;5064661;28;20081;-71
2022/05/22 11:45:51;;;;;;;2.50;1.00;;;21.90;46.70;20.70;101220.00;;;;5046165;28;20037;-71
2022/05/22 11:48:43;;;;;;;3.05;1.00;;;21.90;46.60;20.70;101215.00;;;;5051304;28;20393;-71
2022/05/22 11:51:51;;;;;;;4.32;0.80;;;21.90;46.60;20.70;101201.00;;;;5059148;28;20036;-71
2022/05/22 11:55:16;;;;;;;2.97;0.75;;;21.80;46.60;20.70;101209.00;;;;5054699;28;20389;-71
2022/05/22 11:58:21;;;;;;;2.25;0.90;;;21.90;46.60;20.70;101199.00;;;;5041611;28;20450;-71
2022/05/22 12:02:04;;;;;;;4.97;1.40;;;21.90;46.60;20.70;101197.00;;;;5051596;28;20044;-71
2022/05/22 12:05:22;;;;;;;4.75;0.80;;;21.90;46.70;20.70;101190.00;;;;4987821;28;20034;-71
2022/05/22 12:08:22;;;;;;;4.55;1.27;;;21.90;46.60;20.70;101192.00;;;;5059211;28;20044;-71
2022/05/22 12:11:25;;;;;;;4.38;0.80;;;21.90;47.30;20.70;101194.00;;;;5073482;28;20040;-71
2022/05/22 12:14:20;;;;;;;5.53;1.17;;;21.90;46.60;20.70;101184.00;;;;5050168;28;20072;-71
2022/05/22 12:17:23;;;;;;;11.32;1.35;;;21.90;46.70;20.70;101191.00;;;;5062955;28;20044;-71
2022/05/22 12:20:42;;;;;;;4.28;0.80;;;21.90;46.80;20.70;101186.00;;;;5065184;28;20033;-71
2022/05/22 12:23:40;;;;;;;11.45;1.23;;;21.90;46.80;20.70;101175.00;;;;5043547;28;20033;-71
2022/05/22 12:26:26;;;;;;;11.57;1.83;;;21.90;46.90;20.70;101175.00;;;;5054604;28;20457;-71
2022/05/22 12:29:25;;;;;;;11.55;1.40;;;22.00;46.90;20.70;101159.00;;;;5050523;28;20032;-71
2022/05/22 12:32:17;;;;;;;;;;;22.00;47.00;20.80;101152.00;;;;5050320;28;20123;-71
2022/05/22 12:35:05;;;;;;;12.35;1.23;;;22.00;47.10;20.80;101150.00;;;;5054072;28;19934;-71
2022/05/22 12:38:02;;;;;;;8.73;1.50;;;22.00;46.90;20.80;101152.00;;;;5050896;28;20125;-71
2022/05/22 12:41:42;;;;;;;6.32;1.10;;;22.00;46.80;20.80;101139.00;;;;5049838;28;20072;-71
2022/05/22 12:44:28;;;;;;;9.23;1.10;;;22.00;47.00;20.80;101140.00;;;;5062142;28;20037;-71
2022/05/22 12:47:15;;;;;;;7.88;1.30;;;22.00;46.90;20.80;101141.00;;;;5051544;28;20048;-71